Time;durP1;ratioP1;P1;durP2;ratioP2;P2;SDS_P1;SDS_P2;PMS_P1;PMS_P2;Temp;Humidity;BMP_temperature;BMP_pressure;BME280_temperature;BME280_humidity;BME280_pressure;Samples;Min_cycle;Max_cycle;Signal;HPM_P1;HPM_P2
2024/02/24 00:01:52;;;;;;;7.22;3.15;;;;;;;1.90;73.49;96831.34;4887826;28;103246;-63
2024/02/24 00:04:22;;;;;;;8.65;2.85;;;;;;;1.82;72.61;96834.75;4870330;28;103209;-64
2024/02/24 00:06:51;;;;;;;9.85;2.95;;;;;;;1.96;73.35;96835.09;4869981;28;102762;-63
2024/02/24 00:09:19;;;;;;;9.23;2.67;;;;;;;1.93;73.38;96846.69;4888014;28;102627;-63
2024/02/24 00:11:46;;;;;;;10.57;3.72;;;;;;;2.05;73.20;96839.38;4889205;28;103319;-63
2024/02/24 00:14:15;;;;;;;13.80;4.55;;;;;;;2.13;72.41;96843.78;4861870;28;105065;-63
2024/02/24 00:16:44;;;;;;;13.68;3.58;;;;;;;2.05;73.02;96838.56;4882156;28;105444;-63
2024/02/24 00:19:15;;;;;;;7.63;3.05;;;;;;;2.14;72.49;96832.38;4867203;28;103330;-64
2024/02/24 00:21:44;;;;;;;10.85;3.60;;;;;;;2.03;73.09;96835.28;4869176;28;103295;-63
2024/02/24 00:24:12;;;;;;;10.20;3.22;;;;;;;1.95;72.84;96833.47;4874360;28;103284;-63
2024/02/24 00:26:44;;;;;;;7.55;2.65;;;;;;;2.19;72.95;96829.28;4859534;28;103356;-63
2024/02/24 00:29:12;;;;;;;7.95;3.35;;;;;;;2.18;72.61;96832.88;4889285;28;102691;-63
2024/02/24 00:31:41;;;;;;;8.43;2.95;;;;;;;2.19;72.43;96835.31;4883644;28;103081;-64
2024/02/24 00:34:10;;;;;;;9.63;3.33;;;;;;;2.23;72.67;96833.22;4887236;28;103363;-64
2024/02/24 00:36:38;;;;;;;10.00;3.13;;;;;;;2.36;72.52;96841.38;4884454;28;102713;-64
2024/02/24 00:39:06;;;;;;;9.70;3.22;;;;;;;2.38;72.30;96831.56;4875247;28;102742;-63
2024/02/24 00:41:34;;;;;;;8.13;2.90;;;;;;;2.21;72.66;96833.34;4890494;28;103317;-63
2024/02/24 00:44:03;;;;;;;7.78;3.03;;;;;;;2.30;72.04;96836.81;4891239;28;103256;-63
2024/02/24 00:46:31;;;;;;;8.45;2.90;;;;;;;2.38;72.01;96836.81;4891714;28;103113;-63
2024/02/24 00:48:59;;;;;;;6.38;2.47;;;;;;;2.47;71.71;96837.63;4873524;28;102871;-63
2024/02/24 00:51:28;;;;;;;8.05;2.33;;;;;;;2.45;71.89;96831.75;4872424;28;105800;-63
2024/02/24 00:53:56;;;;;;;7.22;2.92;;;;;;;2.48;71.58;96834.84;4885332;28;103431;-62
2024/02/24 00:56:24;;;;;;;11.13;3.70;;;;;;;2.35;71.48;96833.72;4893315;28;102673;-63
2024/02/24 00:58:52;;;;;;;9.50;2.92;;;;;;;2.19;71.72;96826.66;4890418;28;102732;-62
2024/02/24 01:01:20;;;;;;;9.13;3.47;;;;;;;2.07;73.13;96826.16;4887538;28;103416;-63
2024/02/24 01:03:48;;;;;;;9.00;3.20;;;;;;;2.15;72.60;96827.00;4892568;28;103338;-63
2024/02/24 01:06:16;;;;;;;10.07;3.10;;;;;;;2.14;72.57;96819.31;4869514;28;102904;-63
2024/02/24 01:08:45;;;;;;;6.88;2.60;;;;;;;2.20;72.38;96823.06;4889402;28;102875;-63
2024/02/24 01:11:13;;;;;;;7.25;2.78;;;;;;;2.18;72.30;96825.84;4890818;28;104034;-64
2024/02/24 01:13:42;;;;;;;5.45;2.15;;;;;;;2.23;72.37;96830.59;4878674;28;104574;-63
2024/02/24 01:16:11;;;;;;;5.72;2.30;;;;;;;2.27;71.93;96837.94;4880755;28;102817;-64
2024/02/24 01:18:39;;;;;;;8.65;2.63;;;;;;;2.22;71.45;96839.41;4891106;28;102810;-65
2024/02/24 01:21:07;;;;;;;11.40;3.28;;;;;;;2.12;72.55;96850.81;4873871;28;103276;-64
2024/02/24 01:23:35;;;;;;;4.47;1.75;;;;;;;2.23;72.40;96851.50;4873106;28;103455;-64
2024/02/24 01:26:04;;;;;;;5.82;2.78;;;;;;;2.24;72.19;96842.66;4868069;28;102979;-64
2024/02/24 01:28:36;;;;;;;7.10;2.90;;;;;;;2.27;72.44;96850.19;4889176;28;102720;-64
2024/02/24 01:31:07;;;;;;;9.05;2.70;;;;;;;2.19;73.09;96847.56;4868005;28;103296;-64
2024/02/24 01:33:34;;;;;;;8.82;2.97;;;;;;;2.20;72.96;96851.81;4890595;28;103271;-64
2024/02/24 01:36:03;;;;;;;6.35;2.15;;;;;;;2.32;72.08;96850.53;4889265;28;102730;-64
2024/02/24 01:38:31;;;;;;;4.93;2.38;;;;;;;2.41;71.92;96849.56;4893864;28;102680;-63
2024/02/24 01:40:59;;;;;;;5.13;2.13;;;;;;;2.39;72.62;96845.47;4890563;28;103234;-63
2024/02/24 01:43:29;;;;;;;4.05;2.03;;;;;;;2.40;72.67;96845.31;4887647;28;107090;-64
2024/02/24 01:45:57;;;;;;;4.15;1.60;;;;;;;2.51;72.47;96851.19;4895395;28;102728;-64
2024/02/24 01:48:25;;;;;;;4.55;1.55;;;;;;;2.58;71.79;96854.78;4891736;28;102707;-64
2024/02/24 01:50:54;;;;;;;4.05;1.27;;;;;;;2.71;71.55;96860.38;4888203;28;103831;-64
2024/02/24 01:53:22;;;;;;;4.38;1.60;;;;;;;2.72;71.74;96856.75;4887952;28;103151;-63
2024/02/24 01:55:52;;;;;;;7.25;1.90;;;;;;;2.79;71.59;96864.75;4877125;28;102886;-64
2024/02/24 01:58:21;;;;;;;5.53;1.58;;;;;;;2.95;70.57;96858.72;4887293;28;104332;-63
2024/02/24 02:00:51;;;;;;;4.22;1.42;;;;;;;3.01;70.71;96850.19;4892941;28;103290;-64
2024/02/24 02:03:19;;;;;;;3.88;1.15;;;;;;;3.12;70.80;96856.91;4877446;28;103261;-64
2024/02/24 02:05:48;;;;;;;6.20;1.13;;;;;;;3.20;70.39;96856.88;4880236;28;104802;-64
2024/02/24 02:08:16;;;;;;;5.18;1.15;;;;;;;3.24;70.08;96868.63;4887103;28;102751;-64
2024/02/24 02:10:45;;;;;;;7.32;1.50;;;;;;;3.29;70.45;96868.16;4892042;28;103290;-64
2024/02/24 02:13:13;;;;;;;4.05;1.10;;;;;;;3.34;70.26;96871.06;4882995;28;103014;-64
2024/02/24 02:15:42;;;;;;;3.83;1.20;;;;;;;3.38;70.45;96877.59;4886987;28;102668;-63
2024/02/24 02:18:11;;;;;;;2.85;1.10;;;;;;;3.52;70.04;96875.28;4890846;28;105002;-63
2024/02/24 02:20:39;;;;;;;2.20;0.90;;;;;;;3.58;69.86;96867.56;4871466;28;103318;-64
2024/02/24 02:23:09;;;;;;;3.75;1.10;;;;;;;3.64;69.31;96866.88;4890416;28;103206;-63
2024/02/24 02:25:37;;;;;;;5.32;1.08;;;;;;;3.68;69.75;96864.72;4885717;28;102845;-64
2024/02/24 02:28:05;;;;;;;3.22;1.17;;;;;;;3.74;69.88;96861.44;4869818;28;102831;-63
2024/02/24 02:30:34;;;;;;;2.97;1.17;;;;;;;3.73;70.61;96867.66;4883468;28;103247;-63
2024/02/24 02:33:06;;;;;;;3.75;1.58;;;;;;;3.65;71.28;96865.06;4886736;28;103142;-63
2024/02/24 02:35:35;;;;;;;4.00;1.45;;;;;;;3.61;71.37;96863.78;4889558;28;103362;-63
2024/02/24 02:38:07;;;;;;;2.60;1.20;;;;;;;3.63;71.10;96860.03;4868613;28;103970;-63
2024/02/24 02:40:40;;;;;;;5.57;1.25;;;;;;;3.60;71.24;96855.13;4887550;28;102973;-63
2024/02/24 02:43:08;;;;;;;2.90;1.00;;;;;;;3.66;71.79;96874.56;4887154;28;103034;-64
2024/02/24 02:45:36;;;;;;;6.05;1.30;;;;;;;3.60;72.07;96875.25;4861147;28;105195;-65
2024/02/24 02:48:04;;;;;;;3.20;1.02;;;;;;;3.55;72.33;96872.31;4863340;28;102740;-64
2024/02/24 02:50:34;;;;;;;2.70;0.95;;;;;;;3.54;72.09;96870.66;4890806;28;103308;-64
2024/02/24 02:53:02;;;;;;;2.80;1.23;;;;;;;3.57;72.44;96872.97;4891507;28;103035;-65
2024/02/24 02:55:30;;;;;;;2.13;1.30;;;;;;;3.56;72.21;96877.38;4863053;28;102596;-64
2024/02/24 02:57:59;;;;;;;1.48;0.90;;;;;;;3.49;72.86;96884.28;4886018;28;102669;-64
2024/02/24 03:00:27;;;;;;;2.80;1.20;;;;;;;3.53;72.63;96879.53;4891853;28;103899;-64
2024/02/24 03:02:55;;;;;;;2.17;0.98;;;;;;;3.52;72.35;96886.53;4889393;28;103287;-65
2024/02/24 03:05:23;;;;;;;3.00;0.70;;;;;;;3.52;72.45;96883.13;4895140;28;102779;-63
2024/02/24 03:07:51;;;;;;;1.55;0.88;;;;;;;3.47;72.74;96881.00;4883485;28;104820;-63
2024/02/24 03:10:19;;;;;;;2.95;1.40;;;;;;;3.50;73.04;96885.91;4874114;28;103248;-63
2024/02/24 03:12:47;;;;;;;3.28;1.10;;;;;;;3.53;73.05;96874.28;4876967;28;104611;-63
2024/02/24 03:15:16;;;;;;;4.03;1.13;;;;;;;3.54;73.21;96881.97;4892515;28;102789;-63
2024/02/24 03:17:44;;;;;;;3.42;1.38;;;;;;;3.60;73.18;96880.47;4887476;28;104279;-64
2024/02/24 03:20:12;;;;;;;2.67;1.10;;;;;;;3.64;72.51;96872.13;4874524;28;104157;-64
2024/02/24 03:22:40;;;;;;;1.23;0.85;;;;;;;3.66;71.76;96864.09;4891786;28;103231;-64
2024/02/24 03:25:09;;;;;;;2.55;0.80;;;;;;;3.72;72.17;96873.91;4882080;28;103869;-63
2024/02/24 03:27:38;;;;;;;2.88;1.00;;;;;;;3.80;71.45;96858.16;4880537;28;104050;-63
2024/02/24 03:30:08;;;;;;;1.70;0.70;;;;;;;3.87;71.33;96847.00;4885948;28;103263;-64
2024/02/24 03:32:37;;;;;;;2.22;0.90;;;;;;;3.86;71.19;96863.69;4882373;28;103040;-63
2024/02/24 03:35:06;;;;;;;2.90;0.80;;;;;;;3.88;71.27;96856.47;4884065;28;102609;-63
2024/02/24 03:37:34;;;;;;;2.42;0.70;;;;;;;3.95;71.44;96860.03;4889099;28;102827;-64
2024/02/24 03:40:02;;;;;;;1.63;0.68;;;;;;;3.99;71.09;96858.72;4888810;28;104185;-64
2024/02/24 03:42:30;;;;;;;1.23;0.77;;;;;;;4.02;71.03;96857.56;4868612;28;103201;-64
2024/02/24 03:44:59;;;;;;;2.00;0.80;;;;;;;4.01;70.86;96853.28;4888440;28;102732;-64
2024/02/24 03:47:27;;;;;;;1.70;0.80;;;;;;;3.86;71.42;96863.69;4886766;28;103838;-64
2024/02/24 03:49:59;;;;;;;2.70;0.80;;;;;;;3.86;70.49;96859.25;4887495;28;104044;-64
2024/02/24 03:52:27;;;;;;;2.33;0.60;;;;;;;3.94;70.80;96861.03;4891844;28;103235;-64
2024/02/24 03:54:57;;;;;;;2.50;0.68;;;;;;;3.98;70.46;96862.31;4889770;28;102789;-64
2024/02/24 03:57:25;;;;;;;1.65;0.60;;;;;;;3.95;70.70;96873.16;4886854;28;102748;-64
2024/02/24 03:59:53;;;;;;;2.53;0.90;;;;;;;3.98;70.20;96883.28;4892670;28;104219;-64
2024/02/24 04:02:20;;;;;;;1.67;0.70;;;;;;;3.95;70.77;96873.94;4870937;28;104438;-65
2024/02/24 04:04:48;;;;;;;1.85;0.90;;;;;;;3.92;70.54;96884.78;4891545;28;102742;-64
2024/02/24 04:07:18;;;;;;;1.63;0.60;;;;;;;3.80;70.98;96884.34;4879658;28;103033;-64
2024/02/24 04:09:46;;;;;;;2.30;0.60;;;;;;;3.85;70.65;96888.25;4867961;28;103308;-65
2024/02/24 04:12:14;;;;;;;0.98;0.50;;;;;;;3.71;70.75;96885.34;4868872;28;104410;-64
2024/02/24 04:14:42;;;;;;;1.40;0.57;;;;;;;3.79;70.78;96885.31;4876726;28;102756;-65
2024/02/24 04:17:10;;;;;;;0.63;0.55;;;;;;;3.83;70.87;96888.41;4882553;28;102785;-65
2024/02/24 04:19:38;;;;;;;1.00;0.50;;;;;;;3.75;70.88;96893.69;4870797;28;103280;-64
2024/02/24 04:22:06;;;;;;;1.52;0.60;;;;;;;3.58;71.53;96898.97;4886235;28;103317;-65
2024/02/24 04:24:36;;;;;;;1.50;0.60;;;;;;;3.76;71.12;96901.38;4889091;28;102758;-65
2024/02/24 04:27:04;;;;;;;1.33;0.50;;;;;;;3.74;70.12;96898.09;4884325;28;104506;-65
2024/02/24 04:29:32;;;;;;;1.70;0.70;;;;;;;3.78;71.06;96898.59;4877462;28;103755;-65
2024/02/24 04:32:00;;;;;;;1.17;0.55;;;;;;;3.79;70.51;96905.47;4855423;28;102985;-65
2024/02/24 04:34:28;;;;;;;0.82;0.40;;;;;;;3.84;70.95;96907.56;4866160;28;102720;-65
2024/02/24 04:36:56;;;;;;;1.58;0.60;;;;;;;3.84;70.43;96904.94;4891735;28;102700;-65
2024/02/24 04:39:24;;;;;;;1.40;0.55;;;;;;;3.86;70.78;96910.84;4888534;28;104284;-64
2024/02/24 04:41:54;;;;;;;1.58;0.50;;;;;;;3.91;70.38;96913.75;4860149;28;103539;-65
2024/02/24 04:44:22;;;;;;;1.27;0.55;;;;;;;3.92;70.17;96916.22;4862619;28;103402;-65
2024/02/24 04:46:50;;;;;;;0.70;0.38;;;;;;;3.88;70.78;96914.91;4874757;28;103058;-65
2024/02/24 04:49:18;;;;;;;2.55;0.63;;;;;;;3.84;70.53;96916.25;4891821;28;104431;-65
2024/02/24 04:51:46;;;;;;;2.00;0.57;;;;;;;3.89;70.71;96921.78;4891216;28;103226;-65
2024/02/24 04:54:14;;;;;;;2.47;0.80;;;;;;;3.79;70.37;96914.13;4888813;28;102619;-65
2024/02/24 04:56:42;;;;;;;1.85;0.63;;;;;;;3.88;70.67;96924.56;4891156;28;102724;-65
2024/02/24 04:59:12;;;;;;;1.08;0.50;;;;;;;3.84;70.35;96912.78;4891524;28;105255;-65
2024/02/24 05:01:39;;;;;;;2.08;0.60;;;;;;;3.83;70.62;96916.41;4883274;28;103259;-65
2024/02/24 05:04:08;;;;;;;1.27;0.60;;;;;;;3.85;70.94;96919.66;4894501;28;102920;-65
2024/02/24 05:06:36;;;;;;;1.38;0.60;;;;;;;3.83;70.56;96914.59;4885298;28;104051;-64
2024/02/24 05:09:05;;;;;;;2.40;0.85;;;;;;;3.81;70.50;96922.63;4887362;28;103887;-64
2024/02/24 05:11:33;;;;;;;1.80;0.77;;;;;;;3.81;71.01;96940.97;4889567;28;103085;-64
2024/02/24 05:14:01;;;;;;;2.15;0.60;;;;;;;3.84;70.61;96954.69;4882552;28;102551;-64
2024/02/24 05:16:32;;;;;;;2.35;0.80;;;;;;;3.79;70.90;96956.03;4891278;28;103949;-64
2024/02/24 05:19:01;;;;;;;2.10;0.80;;;;;;;3.69;71.11;96965.88;4888054;28;103245;-64
2024/02/24 05:21:29;;;;;;;3.45;0.90;;;;;;;3.77;70.67;96971.09;4890959;28;103283;-64
2024/02/24 05:23:57;;;;;;;2.33;0.75;;;;;;;3.88;70.96;96976.94;4881987;28;102768;-64
2024/02/24 05:26:25;;;;;;;1.75;0.70;;;;;;;3.97;70.70;96976.75;4867496;28;102870;-64
2024/02/24 05:28:53;;;;;;;1.38;0.65;;;;;;;3.95;70.68;96972.69;4879173;28;103398;-65
2024/02/24 05:31:21;;;;;;;3.13;0.80;;;;;;;4.05;70.56;96962.81;4887400;28;103364;-64
2024/02/24 05:33:52;;;;;;;1.80;0.50;;;;;;;4.13;70.36;96969.84;4871412;28;103079;-64
2024/02/24 05:36:21;;;;;;;2.13;0.80;;;;;;;4.10;70.75;96975.41;4838500;28;102823;-65
2024/02/24 05:38:49;;;;;;;2.55;1.20;;;;;;;3.87;71.36;96980.56;4874539;28;103312;-63
2024/02/24 05:41:17;;;;;;;5.30;1.50;;;;;;;3.93;70.67;96985.13;4886543;28;103791;-63
2024/02/24 05:43:47;;;;;;;4.15;1.23;;;;;;;3.98;70.55;96990.66;4885306;28;104097;-64
2024/02/24 05:46:17;;;;;;;2.60;1.13;;;;;;;3.97;71.02;96987.25;4887003;28;102736;-63
2024/02/24 05:48:46;;;;;;;4.07;1.40;;;;;;;4.04;70.52;96982.16;4868107;28;103335;-64
2024/02/24 05:51:16;;;;;;;3.15;1.40;;;;;;;3.94;70.96;96987.59;4875554;28;103212;-63
2024/02/24 05:53:44;;;;;;;5.18;1.35;;;;;;;4.02;71.00;96999.81;4873102;28;102809;-63
2024/02/24 05:56:12;;;;;;;6.63;1.73;;;;;;;4.04;70.90;96997.88;4887675;28;102809;-64
2024/02/24 05:58:43;;;;;;;2.50;1.10;;;;;;;4.06;70.46;97001.16;4885386;28;104021;-63
2024/02/24 06:01:11;;;;;;;5.03;1.40;;;;;;;4.04;70.50;96997.88;4882728;28;103692;-63
2024/02/24 06:03:39;;;;;;;2.95;1.40;;;;;;;4.01;70.67;97002.63;4888179;28;102700;-63
2024/02/24 06:06:08;;;;;;;3.38;1.35;;;;;;;4.13;70.54;97001.28;4877154;28;103064;-63
2024/02/24 06:22:22;;;;;;;3.50;1.50;;;;;;;4.10;70.87;97033.88;4889956;28;103686;-63
2024/02/24 06:29:52;;;;;;;2.10;1.33;;;;;;;4.17;70.84;97043.66;4918098;28;103134;-63
2024/02/24 11:50:14;;;;;;;1.63;0.30;;;;;;;10.70;43.30;97352.03;4912510;28;103179;-63
2024/02/24 11:53:12;;;;;;;1.00;0.30;;;;;;;11.09;41.40;97355.69;4901349;28;104771;-63
2024/02/24 13:28:57;;;;;;;5.90;0.50;;;;;;;10.45;44.18;97352.59;4863454;28;103951;-64
2024/02/24 17:33:59;;;;;;;3.45;1.40;;;;;;;7.11;57.97;97559.25;5066905;27;103000;-62
2024/02/24 17:36:27;;;;;;;2.35;0.98;;;;;;;6.71;58.85;97558.47;5017685;27;102779;-62
2024/02/24 17:38:55;;;;;;;2.67;0.90;;;;;;;6.47;60.10;97567.25;4129610;27;10000191;-60
2024/02/24 17:41:24;;;;;;;3.17;1.17;;;;;;;6.42;60.18;97574.81;4992515;27;190190;-62
2024/02/24 17:43:52;;;;;;;5.28;1.73;;;;;;;6.51;59.86;97573.84;4991224;27;103165;-62
2024/02/24 17:46:20;;;;;;;8.13;1.90;;;;;;;6.65;59.55;97580.19;5002206;27;119131;-61
2024/02/24 17:48:48;;;;;;;3.85;1.92;;;;;;;6.68;59.69;97582.50;4988442;27;102696;-62
2024/02/24 17:51:17;;;;;;;5.22;2.05;;;;;;;6.68;60.22;97579.03;4994846;27;103464;-62
2024/02/24 17:53:45;;;;;;;4.78;2.17;;;;;;;6.68;60.51;97590.38;5000272;27;103299;-62
2024/02/24 17:56:13;;;;;;;4.00;1.92;;;;;;;6.54;61.02;97599.00;4995734;22;103256;-62
2024/02/24 17:58:42;;;;;;;4.65;1.80;;;;;;;6.41;62.18;97592.44;4966945;28;104180;-62
2024/02/24 18:01:15;;;;;;;7.00;2.67;;;;;;;6.25;62.96;97590.66;4970271;27;102771;-63
2024/02/24 18:03:43;;;;;;;4.95;1.90;;;;;;;6.29;63.45;97596.41;4968667;28;105172;-62
2024/02/24 18:06:11;;;;;;;4.28;1.70;;;;;;;6.10;64.50;97601.03;4962244;27;103759;-63
2024/02/24 18:08:41;;;;;;;3.85;2.13;;;;;;;6.28;64.05;97600.03;4959687;28;103447;-63
2024/02/24 18:11:09;;;;;;;10.27;4.18;;;;;;;6.28;63.73;97600.03;4956135;27;103146;-63
2024/02/24 18:13:38;;;;;;;10.35;3.97;;;;;;;6.25;64.58;97600.34;4950826;28;103353;-62
2024/02/24 18:16:08;;;;;;;17.50;6.38;;;;;;;6.18;64.68;97599.38;4965285;28;103362;-62
2024/02/24 18:18:39;;;;;;;9.48;4.15;;;;;;;6.11;64.62;97605.31;4964061;28;102943;-62
2024/02/24 18:21:14;;;;;;;5.65;2.50;;;;;;;6.04;65.34;97603.50;4956342;28;102919;-63
2024/02/24 18:23:43;;;;;;;7.38;3.00;;;;;;;6.19;64.42;97611.56;4962328;28;103835;-63
2024/02/24 18:26:11;;;;;;;6.47;3.08;;;;;;;6.04;65.21;97611.38;4946006;28;105252;-63
2024/02/24 18:28:40;;;;;;;10.75;3.30;;;;;;;6.16;64.63;97617.13;4964073;27;103554;-61
2024/02/24 18:31:09;;;;;;;4.20;1.95;;;;;;;6.10;65.11;97614.16;4945559;28;103506;-62
2024/02/24 18:33:37;;;;;;;5.22;1.83;;;;;;;5.95;65.27;97615.81;4956415;28;109131;-61
2024/02/24 18:36:08;;;;;;;4.68;1.73;;;;;;;5.87;66.02;97623.69;4957631;28;103152;-61
2024/02/24 18:38:37;;;;;;;4.32;2.10;;;;;;;5.93;65.48;97609.91;4941130;28;103108;-62
2024/02/24 18:41:13;;;;;;;5.05;1.75;;;;;;;5.62;67.01;97614.00;4938386;28;103699;-61
2024/02/24 18:43:43;;;;;;;10.98;3.15;;;;;;;5.68;66.67;97614.34;4942037;28;102952;-63
2024/02/24 18:46:14;;;;;;;6.65;3.72;;;;;;;5.53;67.30;97615.00;4938666;28;103303;-62
2024/02/24 18:48:42;;;;;;;7.93;3.80;;;;;;;5.48;67.46;97609.41;4940826;28;102749;-61
2024/02/24 18:51:13;;;;;;;8.32;3.25;;;;;;;5.32;67.94;97605.75;4949234;28;103017;-62
2024/02/24 18:53:41;;;;;;;4.75;2.65;;;;;;;5.19;68.85;97605.41;4932067;28;103943;-62
2024/02/24 18:56:11;;;;;;;7.70;3.13;;;;;;;5.25;68.44;97607.41;4908430;28;104493;-62
2024/02/24 18:58:40;;;;;;;7.28;2.72;;;;;;;5.20;68.40;97608.84;4931622;28;103132;-62
2024/02/24 19:01:10;;;;;;;5.90;2.10;;;;;;;5.07;68.86;97602.25;4923815;28;103330;-62
2024/02/24 19:03:38;;;;;;;9.77;3.90;;;;;;;5.11;69.15;97603.59;4932792;28;104504;-62
2024/02/24 19:06:08;;;;;;;6.80;2.70;;;;;;;5.09;68.93;97604.72;4917863;28;103129;-62
2024/02/24 19:08:40;;;;;;;4.75;1.90;;;;;;;5.06;69.32;97605.06;4919645;28;106097;-62
2024/02/24 19:11:12;;;;;;;4.53;1.80;;;;;;;5.07;68.82;97612.75;4943884;28;102734;-62
2024/02/24 19:13:40;;;;;;;4.28;2.00;;;;;;;5.09;68.97;97600.28;4942443;28;103447;-62
2024/02/24 19:16:08;;;;;;;4.10;1.90;;;;;;;4.94;69.64;97617.66;4944939;28;103191;-62
2024/02/24 19:18:36;;;;;;;5.05;1.92;;;;;;;5.02;69.31;97615.03;4943364;28;103233;-62
2024/02/24 19:21:05;;;;;;;5.03;1.98;;;;;;;5.05;69.06;97625.22;4908827;28;103114;-62
2024/02/24 19:23:36;;;;;;;5.28;1.60;;;;;;;5.18;68.18;97616.88;4900239;28;106094;-61
2024/02/24 19:26:05;;;;;;;4.90;1.65;;;;;;;5.25;68.31;97622.31;4921588;28;103989;-62
2024/02/24 19:28:35;;;;;;;4.50;1.98;;;;;;;5.08;69.20;97629.31;4917207;28;102801;-61
2024/02/24 19:31:03;;;;;;;4.45;1.80;;;;;;;5.00;69.11;97616.19;4943123;28;102733;-61
2024/02/24 19:33:34;;;;;;;3.80;1.75;;;;;;;5.09;68.90;97620.47;4907428;28;105812;-62
2024/02/24 19:36:03;;;;;;;4.90;2.30;;;;;;;5.07;68.86;97625.03;4940624;28;103861;-62
2024/02/24 19:38:31;;;;;;;4.70;2.15;;;;;;;5.08;68.98;97619.66;4920112;28;103444;-62
2024/02/24 19:40:59;;;;;;;4.88;2.00;;;;;;;5.11;68.52;97629.03;4936202;28;102736;-62
2024/02/24 19:43:29;;;;;;;7.15;2.30;;;;;;;5.04;69.03;97622.75;4952055;28;103271;-62
2024/02/24 19:45:58;;;;;;;4.15;1.92;;;;;;;5.10;69.15;97627.38;4931643;28;104715;-61
2024/02/24 19:48:27;;;;;;;6.57;2.03;;;;;;;5.10;68.20;97628.19;4928725;28;103126;-62
2024/02/24 19:50:57;;;;;;;4.75;1.85;;;;;;;5.07;69.04;97625.03;4942456;28;102759;-62
2024/02/24 19:53:25;;;;;;;5.30;2.00;;;;;;;4.94;69.35;97628.97;4923824;28;104240;-62
2024/02/24 19:55:54;;;;;;;6.15;2.22;;;;;;;4.97;68.76;97627.81;4925703;28;106305;-62
2024/02/24 19:58:22;;;;;;;4.68;2.00;;;;;;;4.94;69.22;97630.78;4886091;28;206082;-62
2024/02/24 20:01:05;;;;;;;4.65;1.90;;;;;;;4.93;69.10;97632.56;4910269;28;104108;-63
2024/02/24 20:03:35;;;;;;;4.75;1.95;;;;;;;5.04;68.35;97636.69;4929884;28;104051;-62
2024/02/24 20:06:04;;;;;;;4.47;1.92;;;;;;;5.02;68.51;97630.78;4939379;28;103256;-62
2024/02/24 20:08:32;;;;;;;4.97;1.92;;;;;;;5.04;68.60;97628.81;4946291;28;102682;-62
2024/02/24 20:11:00;;;;;;;4.32;1.85;;;;;;;5.07;68.09;97632.91;4925830;28;103188;-63
2024/02/24 20:13:28;;;;;;;3.30;1.80;;;;;;;4.99;68.05;97633.72;4936618;28;105041;-62
2024/02/24 20:15:56;;;;;;;5.50;2.13;;;;;;;5.08;67.76;97632.78;4949153;28;108667;-61
2024/02/24 20:18:25;;;;;;;4.47;1.92;;;;;;;5.00;67.89;97634.56;4946842;28;104144;-62
2024/02/24 20:20:53;;;;;;;5.47;1.88;;;;;;;4.94;68.24;97638.66;4941970;28;102735;-62
2024/02/24 20:23:21;;;;;;;6.78;2.40;;;;;;;4.82;68.57;97641.53;4953438;28;103265;-62
2024/02/24 20:25:52;;;;;;;5.03;2.35;;;;;;;4.94;68.07;97636.84;4948142;28;103725;-62
2024/02/24 20:28:20;;;;;;;4.35;1.90;;;;;;;4.92;67.95;97636.16;4960259;28;102826;-62
2024/02/24 20:30:48;;;;;;;8.55;3.90;;;;;;;4.81;68.31;97642.50;4965822;28;102752;-61
2024/02/24 20:33:16;;;;;;;11.23;4.93;;;;;;;4.81;68.32;97649.56;4952666;28;103363;-62
2024/02/24 20:35:45;;;;;;;10.60;4.78;;;;;;;4.65;68.90;97650.28;4957648;28;103098;-62
2024/02/24 20:38:13;;;;;;;6.70;3.30;;;;;;;4.59;69.28;97653.56;4960750;28;103276;-62
2024/02/24 20:40:42;;;;;;;7.07;3.00;;;;;;;4.52;69.71;97648.13;4962609;28;103028;-62
2024/02/24 20:43:10;;;;;;;8.27;3.03;;;;;;;4.58;69.70;97655.34;4955481;28;103378;-62
2024/02/24 20:45:38;;;;;;;8.27;3.08;;;;;;;4.51;69.57;97656.97;4960999;28;103300;-61
2024/02/24 20:48:07;;;;;;;6.28;2.70;;;;;;;4.46;69.67;97667.09;4955297;28;102662;-62
2024/02/24 20:50:35;;;;;;;5.35;2.50;;;;;;;4.47;69.63;97666.13;4958816;28;102690;-62
2024/02/24 20:53:04;;;;;;;5.20;2.50;;;;;;;4.48;69.33;97671.19;4954089;28;103406;-62
2024/02/24 20:55:33;;;;;;;7.18;2.20;;;;;;;4.46;69.78;97673.13;4959820;28;103734;-63
2024/02/24 20:58:01;;;;;;;4.80;2.67;;;;;;;4.52;69.27;97665.63;4956039;28;102630;-62
2024/02/24 21:00:29;;;;;;;6.32;2.25;;;;;;;4.48;69.67;97665.94;4957318;28;102756;-62
2024/02/24 21:02:57;;;;;;;4.22;2.13;;;;;;;4.54;69.15;97661.06;4957293;28;103414;-62
2024/02/24 21:05:25;;;;;;;4.50;2.28;;;;;;;4.48;69.14;97660.72;4954542;28;103909;-62
2024/02/24 21:07:54;;;;;;;3.85;2.10;;;;;;;4.56;68.97;97669.59;4967153;28;102653;-62
2024/02/24 21:10:24;;;;;;;4.80;2.15;;;;;;;4.56;69.08;97672.22;4966347;28;102741;-62
2024/02/24 21:12:52;;;;;;;6.38;2.35;;;;;;;4.51;69.44;97664.81;4959377;28;103117;-62
2024/02/24 21:15:20;;;;;;;5.00;2.40;;;;;;;4.39;69.84;97660.78;4958044;28;104527;-62
2024/02/24 21:17:49;;;;;;;6.35;2.97;;;;;;;4.45;69.06;97671.53;4955048;28;102709;-62
2024/02/24 21:20:18;;;;;;;5.30;2.63;;;;;;;4.48;68.90;97671.19;4951468;28;102668;-62
2024/02/24 21:22:46;;;;;;;5.78;2.83;;;;;;;4.48;69.17;97681.69;4950641;28;103109;-62
2024/02/24 21:25:14;;;;;;;5.97;2.67;;;;;;;4.53;68.71;97672.53;4961392;28;103685;-62
2024/02/24 21:27:44;;;;;;;6.72;2.90;;;;;;;4.39;69.19;97674.75;4966305;28;102776;-62
2024/02/24 21:30:13;;;;;;;6.53;3.10;;;;;;;4.34;69.41;97669.13;4959762;28;102707;-62
2024/02/24 21:32:41;;;;;;;4.90;2.70;;;;;;;3.99;70.76;97670.84;4967097;28;103059;-62
2024/02/24 21:35:12;;;;;;;8.90;3.75;;;;;;;3.79;70.53;97667.56;4953968;28;103089;-62
2024/02/24 21:37:41;;;;;;;6.85;3.40;;;;;;;3.76;71.32;97663.47;4957617;28;102691;-62
2024/02/24 21:40:12;;;;;;;7.43;3.22;;;;;;;3.89;71.04;97667.47;4964734;28;102684;-62
2024/02/24 21:42:40;;;;;;;6.00;2.88;;;;;;;3.86;70.77;97659.94;4958076;28;103805;-62
2024/02/24 21:45:10;;;;;;;7.88;3.72;;;;;;;3.83;70.44;97662.88;4965115;28;103376;-62
2024/02/24 21:47:38;;;;;;;4.85;2.78;;;;;;;3.81;70.17;97663.00;4956480;28;102686;-62
2024/02/24 21:50:08;;;;;;;5.72;2.85;;;;;;;3.80;69.93;97662.19;4973176;28;102642;-62
2024/02/24 21:52:37;;;;;;;5.57;2.75;;;;;;;3.85;70.08;97668.75;4962437;28;103310;-62
2024/02/24 21:55:06;;;;;;;5.95;2.72;;;;;;;3.91;70.07;97670.78;4953578;28;103144;-62
2024/02/24 21:57:34;;;;;;;6.03;2.72;;;;;;;3.90;69.70;97663.91;4950628;28;102791;-62
2024/02/24 22:00:02;;;;;;;5.78;2.53;;;;;;;3.89;69.91;97649.97;4955066;28;103004;-62
2024/02/24 22:02:36;;;;;;;8.32;3.03;;;;;;;3.87;69.77;97664.22;4941447;28;104457;-61
2024/02/24 22:05:05;;;;;;;7.63;3.45;;;;;;;3.88;70.59;97663.22;4938660;28;105364;-63
2024/02/24 22:07:33;;;;;;;6.07;3.10;;;;;;;3.87;70.04;97661.59;4941945;28;103171;-62
2024/02/24 22:10:02;;;;;;;5.57;2.75;;;;;;;3.86;70.07;97660.75;4970434;28;102607;-62
2024/02/24 22:12:30;;;;;;;6.32;2.83;;;;;;;3.84;70.15;97662.72;4961499;28;103115;-62
2024/02/24 22:14:58;;;;;;;5.13;2.63;;;;;;;3.73;70.41;97653.25;4939329;28;103864;-62
2024/02/24 22:17:27;;;;;;;7.32;2.90;;;;;;;3.67;71.19;97656.50;4940044;28;102956;-62
2024/02/24 22:19:56;;;;;;;3.97;2.22;;;;;;;3.77;70.60;97656.41;4935175;28;102809;-62
2024/02/24 22:22:25;;;;;;;4.47;2.45;;;;;;;3.76;70.44;97660.84;4959388;28;103536;-62
2024/02/24 22:24:53;;;;;;;5.35;2.70;;;;;;;3.79;70.74;97657.91;4947511;28;106411;-62
2024/02/24 22:27:21;;;;;;;6.18;3.15;;;;;;;3.52;70.69;97652.75;4951153;28;102737;-62
2024/02/24 22:29:50;;;;;;;6.07;3.10;;;;;;;3.34;72.68;97660.59;4973055;28;102746;-62
2024/02/24 22:32:36;;;;;;;7.65;3.75;;;;;;;3.19;71.85;97653.25;4945499;28;104423;-62
2024/02/24 22:35:08;;;;;;;7.10;3.70;;;;;;;3.29;71.71;97654.00;4942153;28;106061;-62
2024/02/24 22:37:37;;;;;;;9.90;4.78;;;;;;;3.12;73.01;97645.16;4941302;28;103214;-63
2024/02/24 22:40:06;;;;;;;9.55;4.63;;;;;;;3.00;72.70;97648.97;4945558;28;102809;-64
2024/02/24 22:42:35;;;;;;;7.05;3.55;;;;;;;2.94;72.84;97644.28;4948219;28;105683;-63
2024/02/24 22:45:05;;;;;;;7.40;3.75;;;;;;;2.62;74.06;97655.97;4960696;28;103424;-62
2024/02/24 22:47:33;;;;;;;6.05;3.55;;;;;;;2.25;75.89;97654.19;4928927;28;102757;-62
2024/02/24 22:50:02;;;;;;;6.70;3.60;;;;;;;2.31;75.61;97651.81;4963050;28;104938;-62
2024/02/24 22:52:32;;;;;;;7.70;3.47;;;;;;;2.22;75.73;97651.84;4939404;28;105180;-62